createdAt,value
2022-10-04T00:01:47.692Z,97.79
2022-10-04T00:04:21.046Z,98.04
2022-10-04T00:07:23.895Z,98.07
2022-10-04T00:10:22.144Z,98.83
2022-10-04T00:12:52.432Z,98.96
2022-10-04T00:15:33.676Z,99.04
2022-10-04T00:18:00.368Z,99.12
2022-10-04T00:20:53.309Z,98.96
2022-10-04T00:23:23.219Z,98.89
2022-10-04T00:25:51.479Z,99.08
2022-10-04T00:28:21.015Z,99.01
2022-10-04T00:31:25.927Z,99.32
2022-10-04T00:34:15.593Z,98.95
2022-10-04T00:36:48.469Z,99.31
2022-10-04T00:39:18.336Z,99.32
2022-10-04T00:41:48.168Z,99.39
2022-10-04T00:44:35.935Z,99.02
2022-10-04T00:47:12.727Z,99.14
2022-10-04T00:49:42.929Z,99.17
2022-10-04T00:52:21.724Z,99.28
2022-10-04T00:54:57.073Z,99.16
2022-10-04T00:57:47.414Z,99.39
2022-10-04T01:00:16.534Z,99.68
2022-10-04T01:02:45.801Z,99.25
2022-10-04T01:05:28.147Z,99.28
2022-10-04T01:08:03.343Z,99.43
2022-10-04T01:10:39.554Z,99.70
2022-10-04T01:13:27.708Z,99.52
2022-10-04T01:16:03.745Z,99.32
2022-10-04T01:18:35.582Z,99.10
2022-10-04T01:21:21.139Z,99.13
2022-10-04T01:23:49.533Z,99.41
2022-10-04T01:26:34.643Z,99.46
2022-10-04T01:29:15.763Z,99.39
2022-10-04T01:31:48.772Z,99.72
2022-10-04T01:34:18.523Z,99.68
2022-10-04T01:36:47.301Z,99.85
2022-10-04T01:39:16.169Z,99.67
2022-10-04T01:41:54.063Z,99.64
2022-10-04T01:44:32.811Z,99.40
2022-10-04T01:47:05.330Z,99.27
2022-10-04T01:49:36.594Z,99.45
2022-10-04T01:52:22.559Z,98.83
2022-10-04T01:54:59.516Z,99.36
2022-10-04T01:57:34.238Z,99.20
2022-10-04T02:00:08.940Z,99.42
2022-10-04T02:02:50.811Z,99.98
2022-10-04T02:05:27.381Z,99.91
2022-10-04T02:07:56.135Z,99.90
2022-10-04T02:10:25.323Z,99.88
2022-10-04T02:12:54.876Z,100.00
2022-10-04T02:15:26.353Z,100.00
2022-10-04T02:17:55.391Z,99.21
2022-10-04T02:20:25.891Z,98.57
2022-10-04T02:23:06.445Z,98.43
2022-10-04T02:25:36.402Z,98.54
2022-10-04T02:28:04.187Z,98.04
2022-10-04T02:30:37.902Z,98.31
2022-10-04T02:33:05.187Z,98.21
2022-10-04T02:35:45.069Z,97.86
2022-10-04T02:38:23.586Z,97.55
2022-10-04T02:41:03.885Z,97.89
2022-10-04T02:43:46.043Z,97.77
2022-10-04T02:46:23.405Z,97.62
2022-10-04T02:48:58.695Z,97.94
2022-10-04T02:51:38.039Z,97.54
2022-10-04T02:54:16.570Z,98.04
2022-10-04T02:56:44.360Z,98.02
2022-10-04T02:59:16.688Z,97.67
2022-10-04T03:01:49.894Z,98.52
2022-10-04T03:04:18.394Z,98.27
2022-10-04T03:06:47.965Z,98.58
2022-10-04T03:09:16.239Z,98.56
2022-10-04T03:11:44.018Z,98.58
2022-10-04T03:14:19.146Z,98.45
2022-10-04T03:16:50.135Z,98.42
2022-10-04T03:19:19.306Z,98.29
2022-10-04T03:21:49.259Z,98.09
2022-10-04T03:24:23.542Z,98.06
2022-10-04T03:26:56.158Z,98.15
2022-10-04T03:29:26.612Z,97.68
2022-10-04T03:31:58.437Z,97.66
2022-10-04T03:34:37.523Z,97.88
2022-10-04T03:37:09.517Z,97.55
2022-10-04T03:39:46.084Z,97.55
2022-10-04T03:42:22.986Z,97.65
2022-10-04T03:44:54.138Z,97.04
2022-10-04T03:47:34.141Z,97.80
2022-10-04T03:50:15.746Z,97.81
2022-10-04T03:52:50.773Z,97.47
2022-10-04T03:55:19.455Z,97.81
2022-10-04T03:57:47.084Z,97.87
2022-10-04T04:00:20.701Z,98.01
2022-10-04T04:02:58.539Z,98.11
2022-10-04T04:05:35.814Z,98.06
2022-10-04T04:08:15.820Z,97.76
2022-10-04T04:10:47.468Z,98.02
2022-10-04T04:13:32.890Z,97.78
2022-10-04T04:16:03.067Z,98.32
2022-10-04T04:18:33.171Z,98.11
2022-10-04T04:21:03.032Z,98.41
2022-10-04T04:23:39.529Z,98.37
2022-10-04T04:26:15.802Z,98.24
2022-10-04T04:28:49.114Z,98.46
2022-10-04T04:31:19.958Z,98.32
2022-10-04T04:34:02.146Z,98.50
2022-10-04T04:36:41.464Z,98.95
2022-10-04T04:39:37.465Z,99.14
2022-10-04T04:42:14.094Z,99.47
2022-10-04T04:45:00.361Z,99.23
2022-10-04T04:47:36.102Z,99.16
2022-10-04T04:50:13.804Z,98.92
2022-10-04T04:52:42.641Z,99.04
2022-10-04T04:56:01.916Z,98.80
2022-10-04T04:58:42.611Z,98.77
2022-10-04T05:01:21.588Z,98.72
2022-10-04T05:04:06.703Z,98.21
2022-10-04T05:06:35.830Z,98.22
2022-10-04T05:09:03.974Z,97.96
2022-10-04T05:11:38.590Z,98.13
2022-10-04T05:14:12.382Z,98.09
2022-10-04T05:16:45.642Z,98.29
2022-10-04T05:19:21.750Z,98.29
2022-10-04T05:21:51.767Z,98.62
2022-10-04T05:24:21.292Z,97.78
2022-10-04T05:27:21.783Z,96.74
2022-10-04T05:30:06.013Z,96.30
2022-10-04T05:32:38.798Z,96.06
2022-10-04T05:35:15.021Z,94.65
2022-10-04T05:37:53.856Z,94.99
2022-10-04T05:40:39.077Z,94.49
2022-10-04T05:43:22.785Z,94.29
2022-10-04T05:46:27.304Z,94.11
2022-10-04T05:49:19.369Z,94.44
2022-10-04T05:52:02.818Z,94.96
2022-10-04T05:54:34.153Z,94.73
2022-10-04T05:57:34.846Z,95.46
2022-10-04T06:00:21.231Z,94.85
2022-10-04T06:02:58.847Z,94.77
2022-10-04T06:05:54.373Z,94.94
2022-10-04T06:08:34.004Z,93.88
2022-10-04T06:11:12.878Z,92.48
2022-10-04T06:13:44.676Z,90.56
2022-10-04T06:17:01.653Z,90.61
2022-10-04T06:19:34.789Z,89.77
2022-10-04T06:22:18.980Z,88.11
2022-10-04T06:24:54.439Z,86.58
2022-10-04T06:27:41.115Z,84.74
2022-10-04T06:30:15.257Z,84.00
2022-10-04T06:33:21.002Z,81.98
2022-10-04T06:35:57.489Z,80.23
2022-10-04T06:38:44.587Z,80.00
2022-10-04T06:41:25.827Z,78.39
2022-10-04T06:44:13.482Z,78.32
2022-10-04T06:47:18.922Z,77.89
2022-10-04T06:50:06.838Z,77.92
2022-10-04T06:52:54.254Z,79.61
2022-10-04T06:55:53.321Z,81.93
2022-10-04T06:58:34.107Z,80.49
2022-10-04T07:01:10.396Z,80.64
2022-10-04T07:03:51.754Z,81.35
2022-10-04T07:06:30.040Z,82.08
2022-10-04T07:09:02.522Z,83.42
2022-10-04T07:11:37.343Z,84.22
2022-10-04T07:14:03.979Z,85.20
2022-10-04T07:16:37.379Z,85.52
2022-10-04T07:19:26.476Z,86.98
2022-10-04T07:21:59.129Z,88.14
2022-10-04T07:24:49.224Z,87.93
2022-10-04T07:27:46.961Z,88.93
2022-10-04T07:30:20.343Z,89.61
2022-10-04T07:32:51.785Z,89.25
2022-10-04T07:35:34.764Z,89.52
2022-10-04T07:38:13.421Z,89.99
2022-10-04T07:41:23.286Z,90.68
2022-10-04T07:43:57.856Z,92.22
2022-10-04T07:46:43.028Z,92.13
2022-10-04T07:49:18.467Z,92.29
2022-10-04T07:52:18.580Z,92.07
2022-10-04T07:55:02.213Z,91.07
2022-10-04T07:58:07.217Z,90.44
2022-10-04T08:00:51.100Z,90.81
2022-10-04T08:03:45.704Z,90.51
2022-10-04T08:06:19.665Z,90.24
2022-10-04T08:09:01.431Z,89.93
2022-10-04T08:11:43.451Z,89.17
2022-10-04T08:14:10.231Z,89.80
2022-10-04T08:17:08.985Z,89.59
2022-10-04T08:19:59.768Z,89.13
2022-10-04T08:23:00.603Z,88.17
2022-10-04T08:25:55.246Z,87.72
2022-10-04T08:28:40.615Z,87.18
2022-10-04T08:31:23.052Z,88.51
2022-10-04T08:34:17.991Z,87.94
2022-10-04T08:36:54.840Z,88.29
2022-10-04T08:39:52.746Z,88.76
2022-10-04T08:43:16.708Z,89.33
2022-10-04T08:45:43.863Z,89.53
2022-10-04T08:48:24.683Z,89.17
2022-10-04T08:51:14.853Z,90.02
2022-10-04T08:53:50.665Z,90.52
2022-10-04T08:56:50.536Z,90.61
2022-10-04T08:59:39.016Z,90.36
2022-10-04T09:02:39.815Z,90.19
2022-10-04T09:05:34.084Z,90.15
2022-10-04T09:08:22.057Z,90.63
2022-10-04T09:11:05.686Z,91.21
2022-10-04T09:13:48.457Z,91.36
2022-10-04T09:16:18.357Z,89.54
2022-10-04T09:19:15.950Z,87.61
2022-10-04T09:21:46.970Z,87.56
2022-10-04T09:24:34.663Z,85.90
2022-10-04T09:27:54.652Z,84.85
2022-10-04T09:30:57.409Z,83.13
2022-10-04T09:33:44.415Z,82.38
2022-10-04T09:36:36.913Z,82.25
2022-10-04T09:39:31.458Z,82.54
2022-10-04T09:42:25.740Z,82.79
2022-10-04T09:45:10.894Z,83.29
2022-10-04T09:48:25.606Z,83.13
2022-10-04T09:51:10.477Z,83.56
2022-10-04T09:54:03.516Z,83.03
2022-10-04T09:57:01.396Z,83.81
2022-10-04T09:59:47.942Z,83.88
2022-10-04T10:02:24.310Z,84.59
2022-10-04T10:05:15.916Z,83.84
2022-10-04T10:08:15.223Z,82.99
2022-10-04T10:11:34.303Z,81.79
2022-10-04T10:14:01.004Z,79.90
2022-10-04T10:16:53.486Z,79.77
2022-10-04T10:19:20.230Z,79.30
2022-10-04T10:22:11.003Z,77.03
2022-10-04T10:25:15.035Z,75.56
2022-10-04T10:28:06.204Z,74.49
2022-10-04T10:31:04.227Z,73.45
2022-10-04T10:34:08.609Z,73.75
2022-10-04T10:37:13.556Z,73.75
2022-10-04T10:39:58.702Z,73.67
2022-10-04T10:42:51.243Z,72.37
2022-10-04T10:45:32.845Z,73.45
2022-10-04T10:48:14.671Z,73.24
2022-10-04T10:51:18.634Z,73.67
2022-10-04T10:54:13.627Z,73.16
2022-10-04T10:57:04.926Z,72.89
2022-10-04T10:59:53.166Z,73.28
2022-10-04T11:02:21.797Z,73.65
2022-10-04T11:05:22.862Z,73.57
2022-10-04T11:07:55.800Z,73.58
2022-10-04T11:10:43.254Z,73.66
2022-10-04T11:13:48.765Z,73.85
2022-10-04T11:16:27.683Z,74.23
2022-10-04T11:19:23.555Z,74.45
2022-10-04T11:22:06.925Z,73.82
2022-10-04T11:24:53.660Z,73.48
2022-10-04T11:27:47.929Z,72.95
2022-10-04T11:30:27.311Z,72.39
2022-10-04T11:33:28.704Z,71.41
2022-10-04T11:36:23.336Z,71.47
2022-10-04T11:39:17.533Z,71.24
2022-10-04T11:42:01.295Z,70.42
2022-10-04T11:44:46.455Z,70.19
2022-10-04T11:47:26.496Z,69.89
2022-10-04T11:50:39.503Z,68.54
2022-10-04T11:53:40.626Z,67.59
2022-10-04T11:56:29.838Z,67.59
2022-10-04T11:59:21.261Z,67.07
2022-10-04T12:02:07.129Z,67.47
2022-10-04T12:04:42.961Z,67.76
2022-10-04T12:07:34.548Z,67.18
2022-10-04T12:10:10.485Z,66.11
2022-10-04T12:12:55.318Z,66.29
2022-10-04T12:16:13.032Z,66.37
2022-10-04T12:19:03.579Z,67.15
2022-10-04T12:21:30.300Z,69.23
2022-10-04T12:24:21.340Z,72.32
2022-10-04T12:27:10.979Z,76.29
2022-10-04T12:30:11.525Z,77.56
2022-10-04T12:33:10.267Z,79.29
2022-10-04T12:35:57.484Z,82.16
2022-10-04T12:38:46.600Z,82.88
2022-10-04T12:41:22.483Z,83.51
2022-10-04T12:43:52.492Z,83.93
2022-10-04T12:46:37.897Z,84.69
2022-10-04T12:49:23.342Z,85.87
2022-10-04T12:52:23.652Z,85.17
2022-10-04T12:55:36.109Z,85.17
2022-10-04T12:58:22.011Z,85.87
2022-10-04T13:00:56.757Z,85.59
2022-10-04T13:03:35.793Z,86.22
2022-10-04T13:06:20.866Z,85.79
2022-10-04T13:08:52.011Z,86.73
2022-10-04T13:11:45.281Z,86.94
2022-10-04T13:14:14.436Z,87.55
2022-10-04T13:17:34.700Z,88.85
2022-10-04T13:20:05.080Z,89.27
2022-10-04T13:22:56.335Z,89.78
2022-10-04T13:25:31.869Z,90.45
2022-10-04T13:28:00.246Z,90.73
2022-10-04T13:30:44.263Z,90.68
2022-10-04T13:33:25.399Z,90.27
2022-10-04T13:36:32.981Z,90.18
2022-10-04T13:39:37.566Z,90.10
2022-10-04T13:42:39.054Z,90.06
2022-10-04T13:45:36.808Z,89.78
2022-10-04T13:48:13.767Z,89.69
2022-10-04T13:51:27.529Z,89.63
2022-10-04T13:54:31.557Z,89.85
2022-10-04T13:56:58.573Z,90.15
2022-10-04T13:59:34.604Z,90.23
2022-10-04T14:02:23.975Z,90.36
2022-10-04T14:05:10.984Z,89.49
2022-10-04T14:07:56.677Z,89.70
2022-10-04T14:10:52.783Z,89.21
2022-10-04T14:13:40.840Z,88.60
2022-10-04T14:16:20.562Z,89.39
2022-10-04T14:18:54.021Z,89.58
2022-10-04T14:21:32.771Z,89.13
2022-10-04T14:24:15.171Z,88.69
2022-10-04T14:26:54.228Z,89.37
2022-10-04T14:29:40.240Z,89.30
2022-10-04T14:32:34.324Z,88.96
2022-10-04T14:35:26.155Z,89.11
2022-10-04T14:38:11.017Z,88.49
2022-10-04T14:40:52.714Z,88.82
2022-10-04T14:43:22.386Z,88.38
2022-10-04T14:46:23.393Z,88.48
2022-10-04T14:48:59.147Z,88.47
2022-10-04T14:51:53.984Z,88.10
2022-10-04T14:54:26.912Z,88.66
2022-10-04T14:57:13.889Z,88.72
2022-10-04T15:00:06.760Z,89.04
2022-10-04T15:02:33.651Z,88.80
2022-10-04T15:05:31.936Z,88.98
2022-10-04T15:08:26.662Z,89.26
2022-10-04T15:11:01.595Z,89.79
2022-10-04T15:13:55.935Z,90.58
2022-10-04T15:16:46.148Z,90.93
2022-10-04T15:19:22.040Z,91.55
2022-10-04T15:22:00.208Z,91.91
2022-10-04T15:24:44.524Z,92.08
2022-10-04T15:27:29.372Z,92.16
2022-10-04T15:30:00.679Z,94.06
2022-10-04T15:32:36.536Z,94.25
2022-10-04T15:35:46.405Z,95.04
2022-10-04T15:38:29.293Z,95.37
2022-10-04T15:41:03.610Z,96.24
2022-10-04T15:43:34.507Z,96.37
2022-10-04T15:46:59.205Z,96.87
2022-10-04T15:49:52.705Z,96.24
2022-10-04T15:52:40.892Z,96.78
2022-10-04T15:55:48.072Z,96.61
2022-10-04T15:58:37.755Z,97.01
2022-10-04T16:01:12.918Z,97.21
2022-10-04T16:03:46.338Z,97.31
2022-10-04T16:06:41.880Z,97.49
2022-10-04T16:09:40.889Z,97.12
2022-10-04T16:12:22.923Z,97.58
2022-10-04T16:14:56.432Z,96.80
2022-10-04T16:18:07.965Z,97.22
2022-10-04T16:20:50.570Z,97.78
2022-10-04T16:23:28.172Z,96.36
2022-10-04T16:26:23.867Z,96.62
2022-10-04T16:28:59.815Z,97.73
2022-10-04T16:31:42.763Z,96.86
2022-10-04T16:34:15.517Z,96.45
2022-10-04T16:36:56.840Z,96.75
2022-10-04T16:39:59.726Z,96.82
2022-10-04T16:42:44.825Z,96.63
2022-10-04T16:45:15.401Z,96.82
2022-10-04T16:47:48.208Z,96.97
2022-10-04T16:50:34.886Z,96.81
2022-10-04T16:53:21.757Z,97.39
2022-10-04T16:55:56.148Z,97.64
2022-10-04T16:58:28.786Z,98.24
2022-10-04T17:01:22.740Z,98.12
2022-10-04T17:04:28.535Z,97.92
2022-10-04T17:07:13.300Z,98.37
2022-10-04T17:09:56.453Z,98.39
2022-10-04T17:12:35.393Z,98.59
2022-10-04T17:15:17.206Z,98.07
2022-10-04T17:17:49.391Z,98.54
2022-10-04T17:20:38.121Z,98.29
2022-10-04T17:23:22.288Z,98.69
2022-10-04T17:26:26.106Z,98.05
2022-10-04T17:29:16.433Z,98.16
2022-10-04T17:31:50.170Z,98.48
2022-10-04T17:34:41.739Z,98.17
2022-10-04T17:37:48.162Z,98.95
2022-10-04T17:40:17.816Z,99.03
2022-10-04T17:42:52.415Z,99.87
2022-10-04T17:45:48.036Z,99.58
2022-10-04T17:48:36.524Z,99.94
2022-10-04T17:51:41.783Z,99.99
2022-10-04T17:54:37.878Z,99.78
2022-10-04T17:57:04.904Z,100.00
2022-10-04T17:59:42.601Z,100.00
2022-10-04T18:02:36.722Z,99.96
2022-10-04T18:05:19.925Z,100.00
2022-10-04T18:07:56.768Z,100.00
2022-10-04T18:10:34.608Z,100.00
2022-10-04T18:13:09.110Z,100.00
2022-10-04T18:15:53.275Z,100.00
2022-10-04T18:18:30.979Z,100.00
2022-10-04T18:21:21.779Z,100.00
2022-10-04T18:23:59.212Z,100.00
2022-10-04T18:26:31.837Z,100.00
2022-10-04T18:29:01.722Z,100.00
2022-10-04T18:31:38.857Z,99.96
2022-10-04T18:34:28.408Z,99.54
2022-10-04T18:37:22.331Z,99.81
2022-10-04T18:39:55.460Z,99.42
2022-10-04T18:42:29.589Z,99.40
2022-10-04T18:45:01.418Z,99.76
2022-10-04T18:47:51.155Z,99.75
2022-10-04T18:50:19.392Z,99.59
2022-10-04T18:53:13.664Z,99.50
2022-10-04T18:55:46.626Z,99.27
2022-10-04T18:59:04.406Z,99.60
2022-10-04T19:02:06.709Z,99.32
2022-10-04T19:05:15.721Z,99.22
2022-10-04T19:07:46.396Z,99.74
2022-10-04T19:10:34.267Z,99.51
2022-10-04T19:13:26.399Z,99.77
2022-10-04T19:16:41.706Z,99.67
2022-10-04T19:19:27.362Z,99.20
2022-10-04T19:22:11.036Z,99.93
2022-10-04T19:24:52.651Z,99.75
2022-10-04T19:27:25.321Z,99.55
2022-10-04T19:30:12.861Z,99.99
2022-10-04T19:33:07.149Z,99.71
2022-10-04T19:36:00.935Z,99.90
2022-10-04T19:38:37.146Z,100.00
2022-10-04T19:41:08.747Z,100.00
2022-10-04T19:43:53.255Z,100.00
2022-10-04T19:46:42.299Z,100.00
2022-10-04T19:49:42.537Z,100.00
2022-10-04T19:52:44.728Z,100.00
2022-10-04T19:55:22.255Z,100.00
2022-10-04T19:57:55.873Z,100.00
2022-10-04T20:00:22.765Z,100.00
2022-10-04T20:02:50.039Z,100.00
2022-10-04T20:05:25.453Z,99.93
2022-10-04T20:08:05.084Z,99.71
2022-10-04T20:10:35.722Z,100.00
2022-10-04T20:13:13.371Z,100.00
2022-10-04T20:15:40.233Z,100.00
2022-10-04T20:18:32.935Z,99.72
2022-10-04T20:21:00.252Z,100.00
2022-10-04T20:23:36.979Z,100.00
2022-10-04T20:26:08.739Z,100.00
2022-10-04T20:28:41.849Z,100.00
2022-10-04T20:31:31.363Z,100.00
2022-10-04T20:34:44.219Z,99.82
2022-10-04T20:37:11.129Z,99.89
2022-10-04T20:39:41.026Z,100.00
2022-10-04T20:42:27.321Z,99.43
2022-10-04T20:45:20.740Z,100.00
2022-10-04T20:47:49.918Z,99.49
2022-10-04T20:50:26.701Z,100.00
2022-10-04T20:52:58.886Z,99.77
2022-10-04T20:55:27.476Z,99.45
2022-10-04T20:57:59.697Z,100.00
2022-10-04T21:00:28.205Z,100.00
2022-10-04T21:03:16.194Z,100.00
2022-10-04T21:05:44.495Z,100.00
2022-10-04T21:08:23.119Z,100.00
2022-10-04T21:11:20.691Z,100.00
2022-10-04T21:13:53.591Z,100.00
2022-10-04T21:16:33.244Z,100.00
2022-10-04T21:19:35.924Z,100.00
2022-10-04T21:22:04.960Z,100.00
2022-10-04T21:24:38.511Z,100.00
2022-10-04T21:27:09.037Z,100.00
2022-10-04T21:29:36.310Z,100.00
2022-10-04T21:32:03.989Z,100.00
2022-10-04T21:34:51.886Z,100.00
2022-10-04T21:37:18.027Z,100.00
2022-10-04T21:39:44.899Z,100.00
2022-10-04T21:42:12.251Z,100.00
2022-10-04T21:44:39.031Z,100.00
2022-10-04T21:47:05.817Z,100.00
2022-10-04T21:49:32.696Z,100.00
2022-10-04T21:51:59.374Z,99.64
2022-10-04T21:54:26.089Z,100.00
2022-10-04T21:56:53.980Z,100.00
2022-10-04T21:59:21.224Z,100.00
2022-10-04T22:01:48.023Z,100.00
2022-10-04T22:04:14.879Z,100.00
2022-10-04T22:06:41.846Z,100.00
2022-10-04T22:09:09.143Z,100.00
2022-10-04T22:11:36.467Z,100.00
2022-10-04T22:14:03.788Z,100.00
2022-10-04T22:16:30.881Z,100.00
2022-10-04T22:18:57.783Z,100.00
2022-10-04T22:21:24.571Z,99.89
2022-10-04T22:23:51.291Z,100.00
2022-10-04T22:26:20.818Z,100.00
2022-10-04T22:28:55.822Z,100.00
2022-10-04T22:31:29.224Z,100.00
2022-10-04T22:33:56.661Z,100.00
2022-10-04T22:36:37.953Z,100.00
2022-10-04T22:39:14.829Z,100.00
2022-10-04T22:41:47.387Z,100.00
2022-10-04T22:44:20.491Z,100.00
2022-10-04T22:46:59.986Z,100.00
2022-10-04T22:49:30.531Z,100.00
2022-10-04T22:51:59.515Z,100.00
2022-10-04T22:54:31.817Z,100.00
2022-10-04T22:56:59.705Z,100.00
2022-10-04T22:59:35.897Z,100.00
2022-10-04T23:02:09.879Z,100.00
2022-10-04T23:04:36.784Z,100.00
2022-10-04T23:07:03.526Z,100.00
2022-10-04T23:09:30.253Z,100.00
2022-10-04T23:11:56.948Z,100.00
2022-10-04T23:14:23.728Z,100.00
2022-10-04T23:16:50.497Z,100.00
2022-10-04T23:19:21.520Z,100.00
2022-10-04T23:21:49.964Z,100.00
2022-10-04T23:24:22.073Z,100.00
2022-10-04T23:26:56.501Z,100.00
2022-10-04T23:29:34.891Z,100.00
2022-10-04T23:32:09.934Z,100.00
2022-10-04T23:34:39.304Z,100.00
2022-10-04T23:37:20.636Z,100.00
2022-10-04T23:39:47.762Z,100.00
2022-10-04T23:42:20.390Z,100.00
2022-10-04T23:44:49.768Z,100.00
2022-10-04T23:47:19.041Z,100.00
2022-10-04T23:49:51.646Z,100.00
2022-10-04T23:52:26.287Z,100.00
2022-10-04T23:54:54.424Z,100.00
2022-10-04T23:57:24.791Z,100.00
2022-10-04T23:59:51.996Z,100.00
